Time;durP1;ratioP1;P1;durP2;ratioP2;P2;SDS_P1;SDS_P2;PMS_P1;PMS_P2;Temp;Humidity;BMP_temperature;BMP_pressure;BME280_temperature;BME280_humidity;BME280_pressure;Samples;Min_cycle;Max_cycle;Signal;HPM_P1;HPM_P2
2023/04/11 00:00:34;;;;;;;21.92;11.55;;;;;;;9.16;100.00;98668.16;5139626;27;20057;-61
2023/04/11 00:03:00;;;;;;;20.80;12.07;;;;;;;9.06;100.00;98689.84;5140053;28;20055;-58
2023/04/11 00:05:27;;;;;;;23.67;11.38;;;;;;;9.03;100.00;98696.84;5139487;28;20043;-60
2023/04/11 00:07:53;;;;;;;22.65;11.73;;;;;;;8.89;100.00;98711.06;5139987;28;20047;-60
2023/04/11 00:10:19;;;;;;;21.10;10.95;;;;;;;8.86;100.00;98730.13;5139529;28;20420;-59
2023/04/11 00:12:45;;;;;;;17.90;11.00;;;;;;;8.78;100.00;98758.50;5139583;28;20078;-57
2023/04/11 00:15:11;;;;;;;14.27;10.43;;;;;;;8.71;100.00;98791.94;5139541;28;20057;-59
2023/04/11 00:17:37;;;;;;;21.55;12.23;;;;;;;8.52;100.00;98820.06;5139525;28;20069;-61
2023/04/11 00:20:06;;;;;;;21.13;12.65;;;;;;;8.58;100.00;98842.44;5139542;27;20412;-61
2023/04/11 00:22:33;;;;;;;22.65;11.93;;;;;;;8.50;100.00;98857.91;5139387;28;20130;-59
2023/04/11 00:24:59;;;;;;;22.65;11.60;;;;;;;8.54;100.00;98863.44;5139592;28;20423;-61
2023/04/11 00:27:25;;;;;;;24.73;11.77;;;;;;;8.52;100.00;98873.91;5139314;28;20138;-58
2023/04/11 00:29:51;;;;;;;27.00;12.13;;;;;;;8.48;100.00;98884.78;5139692;28;20058;-60
2023/04/11 00:32:17;;;;;;;23.10;12.68;;;;;;;8.40;100.00;98872.13;5139122;28;20051;-56
2023/04/11 00:34:43;;;;;;;21.02;11.40;;;;;;;8.37;100.00;98906.38;5138788;27;20215;-58
2023/04/11 00:37:11;;;;;;;25.67;12.32;;;;;;;8.36;100.00;98893.06;5139058;27;20051;-62
2023/04/11 00:39:37;;;;;;;21.70;12.23;;;;;;;8.30;100.00;98908.94;5139281;28;20086;-59
2023/04/11 00:42:06;;;;;;;21.52;11.70;;;;;;;8.28;100.00;98924.09;5139047;27;20054;-62
2023/04/11 00:44:31;;;;;;;21.42;12.43;;;;;;;8.21;100.00;98933.72;5139196;28;20055;-61
2023/04/11 00:46:58;;;;;;;21.13;12.13;;;;;;;8.15;100.00;98945.25;5139111;28;20057;-63
2023/04/11 00:49:24;;;;;;;21.45;11.63;;;;;;;8.11;100.00;98961.56;5139018;28;20051;-62
2023/04/11 00:51:50;;;;;;;21.02;11.70;;;;;;;8.12;100.00;98978.72;5139134;28;20090;-62
2023/04/11 00:54:17;;;;;;;24.35;12.80;;;;;;;8.05;100.00;98981.28;5138841;28;20054;-60
2023/04/11 00:56:43;;;;;;;23.50;12.48;;;;;;;8.02;100.00;99008.13;5139113;27;20145;-61
2023/04/11 00:59:10;;;;;;;20.90;12.43;;;;;;;7.98;100.00;99009.97;5138805;27;20057;-59
2023/04/11 01:01:37;;;;;;;21.98;13.50;;;;;;;7.92;100.00;99040.63;5139178;28;20061;-61
2023/04/11 01:04:05;;;;;;;25.27;13.80;;;;;;;7.84;100.00;99087.97;5138647;28;20055;-61
2023/04/11 01:06:32;;;;;;;21.35;13.70;;;;;;;7.84;100.00;99105.16;5138795;28;20047;-62
2023/04/11 01:08:58;;;;;;;21.67;12.45;;;;;;;7.82;100.00;99123.78;5138870;28;20051;-62
2023/04/11 01:11:25;;;;;;;23.05;12.85;;;;;;;7.76;100.00;99136.91;5138713;27;20074;-60
2023/04/11 01:13:51;;;;;;;22.38;12.35;;;;;;;7.74;100.00;99150.09;5138482;28;20146;-62
2023/04/11 01:16:20;;;;;;;23.65;12.77;;;;;;;7.66;100.00;99163.88;5138558;28;20043;-61
2023/04/11 01:18:46;;;;;;;21.60;11.90;;;;;;;7.61;100.00;99202.31;5138660;28;20053;-59
2023/04/11 01:21:12;;;;;;;23.55;12.63;;;;;;;7.58;100.00;99205.72;5138516;28;20043;-60
2023/04/11 01:23:38;;;;;;;22.02;12.85;;;;;;;7.54;100.00;99230.97;5139074;28;20450;-59
2023/04/11 01:26:05;;;;;;;24.23;12.45;;;;;;;7.53;100.00;99253.13;5139761;28;20083;-61
2023/04/11 01:28:31;;;;;;;24.40;11.85;;;;;;;7.50;100.00;99259.28;5140720;28;20050;-59
2023/04/11 01:30:57;;;;;;;22.05;13.15;;;;;;;7.50;100.00;99286.56;5140810;28;20134;-60
2023/04/11 01:33:23;;;;;;;21.08;14.43;;;;;;;7.41;100.00;99299.50;5138970;28;20047;-61
2023/04/11 01:35:49;;;;;;;22.13;12.68;;;;;;;7.45;100.00;99303.94;5138615;28;20050;-61
2023/04/11 01:38:15;;;;;;;29.48;14.65;;;;;;;7.44;100.00;99331.56;5138362;28;20162;-60
2023/04/11 01:40:43;;;;;;;24.20;13.70;;;;;;;7.35;100.00;99347.22;5138353;27;20051;-58
2023/04/11 01:43:10;;;;;;;25.00;14.63;;;;;;;7.38;100.00;99380.09;5137953;28;20142;-61
2023/04/11 01:45:36;;;;;;;30.33;13.43;;;;;;;7.38;100.00;99391.00;5137160;27;20069;-56
2023/04/11 01:48:05;;;;;;;24.77;13.02;;;;;;;7.30;100.00;99410.97;5138081;28;20078;-61
2023/04/11 01:50:31;;;;;;;23.13;13.07;;;;;;;7.34;100.00;99430.19;5138290;28;20051;-61
2023/04/11 01:52:57;;;;;;;25.58;13.10;;;;;;;7.30;100.00;99444.50;5137869;28;20061;-61
2023/04/11 01:55:23;;;;;;;22.35;13.95;;;;;;;7.21;100.00;99462.06;5138344;27;20133;-61
2023/04/11 01:57:49;;;;;;;24.33;14.43;;;;;;;7.18;100.00;99490.81;5137761;28;20146;-60
2023/04/11 02:00:16;;;;;;;23.52;13.35;;;;;;;7.20;100.00;99528.66;5138215;28;20068;-55
2023/04/11 02:02:42;;;;;;;27.10;13.50;;;;;;;7.20;100.00;99545.81;5137606;28;20138;-60
2023/04/11 02:05:09;;;;;;;22.08;13.95;;;;;;;7.17;100.00;99534.78;5137676;28;20198;-62
2023/04/11 02:07:36;;;;;;;23.48;14.13;;;;;;;7.15;100.00;99561.56;5137928;28;20055;-60
2023/04/11 02:10:02;;;;;;;23.90;13.77;;;;;;;7.10;100.00;99551.66;5137596;28;20047;-58
2023/04/11 02:12:28;;;;;;;28.55;14.07;;;;;;;7.04;100.00;99553.78;5137946;28;20049;-61
2023/04/11 02:14:55;;;;;;;23.00;14.05;;;;;;;7.05;100.00;99571.72;5137464;28;20055;-62
2023/04/11 02:17:25;;;;;;;29.88;15.20;;;;;;;6.99;100.00;99561.34;5137747;28;20047;-62
2023/04/11 02:19:51;;;;;;;31.90;15.32;;;;;;;6.98;100.00;99582.38;5137449;28;20447;-56
2023/04/11 02:22:17;;;;;;;25.80;13.98;;;;;;;6.92;100.00;99580.94;5137842;28;20043;-58
2023/04/11 02:24:43;;;;;;;25.48;13.98;;;;;;;6.89;100.00;99583.53;5137472;28;20090;-60
2023/04/11 02:27:10;;;;;;;37.58;14.73;;;;;;;6.85;100.00;99591.59;5137883;27;20075;-63
2023/04/11 02:29:36;;;;;;;26.45;14.80;;;;;;;6.89;100.00;99616.25;5137304;28;20047;-61
2023/04/11 02:32:02;;;;;;;26.73;14.43;;;;;;;6.79;100.00;99625.59;5137294;28;20328;-60
2023/04/11 02:34:28;;;;;;;30.13;15.32;;;;;;;6.74;100.00;99631.25;5137556;28;20091;-58
2023/04/11 02:36:54;;;;;;;29.27;16.10;;;;;;;6.77;100.00;99644.22;5137392;28;20095;-57
2023/04/11 02:39:22;;;;;;;30.60;16.45;;;;;;;6.74;100.00;99662.00;5137576;27;20047;-57
2023/04/11 02:41:48;;;;;;;31.20;15.90;;;;;;;6.73;100.00;99662.31;5137342;28;20051;-55
2023/04/11 02:44:14;;;;;;;32.08;15.48;;;;;;;6.72;100.00;99666.19;5137544;28;20142;-61
2023/04/11 02:46:40;;;;;;;29.50;15.60;;;;;;;6.64;100.00;99675.19;5137259;28;20047;-62
2023/04/11 02:49:07;;;;;;;37.35;15.55;;;;;;;6.48;100.00;99686.63;5137404;28;20499;-61
2023/04/11 02:51:33;;;;;;;28.15;15.05;;;;;;;6.57;100.00;99706.47;5137065;28;20133;-62
2023/04/11 02:53:59;;;;;;;28.10;15.98;;;;;;;6.52;100.00;99714.00;5137436;28;20393;-61
2023/04/11 02:56:25;;;;;;;28.75;16.40;;;;;;;6.51;100.00;99713.19;5136975;27;20479;-58
2023/04/11 02:58:51;;;;;;;32.25;15.80;;;;;;;6.45;100.00;99714.50;5140449;28;20055;-54
2023/04/11 03:01:20;;;;;;;29.83;15.35;;;;;;;6.40;100.00;99725.56;5140726;27;20107;-61
2023/04/11 03:03:46;;;;;;;31.23;16.10;;;;;;;6.40;100.00;99746.53;5140293;28;20051;-61
2023/04/11 03:06:13;;;;;;;28.90;16.73;;;;;;;6.40;100.00;99744.63;5140862;27;20153;-59
2023/04/11 03:08:39;;;;;;;33.38;15.70;;;;;;;6.36;100.00;99741.75;5140478;28;20061;-60
2023/04/11 03:11:05;;;;;;;32.20;15.13;;;;;;;6.25;100.00;99747.84;5140776;28;20079;-59
2023/04/11 03:13:31;;;;;;;25.42;15.65;;;;;;;6.21;100.00;99760.50;5140249;28;20329;-60
2023/04/11 03:15:57;;;;;;;35.38;16.20;;;;;;;6.24;100.00;99795.25;5140774;28;20416;-55
2023/04/11 03:18:23;;;;;;;40.97;15.90;;;;;;;6.21;100.00;99806.78;5140477;28;20201;-58
2023/04/11 03:20:49;;;;;;;34.60;15.77;;;;;;;6.22;100.00;99802.94;5140799;28;20357;-60
2023/04/11 03:23:16;;;;;;;31.73;15.77;;;;;;;6.11;100.00;99800.53;5140322;28;20107;-59
2023/04/11 03:25:44;;;;;;;35.03;16.00;;;;;;;6.12;100.00;99823.09;5140721;28;20104;-54
2023/04/11 03:28:10;;;;;;;30.90;15.75;;;;;;;6.18;100.00;99821.03;5140100;28;20095;-63
2023/04/11 03:30:39;;;;;;;31.83;15.77;;;;;;;6.16;100.00;99834.16;5140123;28;20416;-56
2023/04/11 03:33:06;;;;;;;37.33;16.30;;;;;;;6.18;100.00;99832.72;5140284;27;20051;-61
2023/04/11 03:35:32;;;;;;;30.98;16.13;;;;;;;6.21;100.00;99821.19;5140018;27;20133;-62
2023/04/11 03:37:58;;;;;;;26.73;15.88;;;;;;;6.11;100.00;99824.25;5140409;27;20054;-61
2023/04/11 03:40:24;;;;;;;31.67;16.55;;;;;;;6.11;100.00;99827.75;5140146;28;20122;-61
2023/04/11 03:42:51;;;;;;;30.30;16.17;;;;;;;6.19;100.00;99822.63;5140331;28;20058;-61
2023/04/11 03:45:17;;;;;;;27.23;15.05;;;;;;;6.08;100.00;99825.66;5139865;28;20047;-56
2023/04/11 03:47:44;;;;;;;35.35;17.35;;;;;;;6.10;100.00;99825.38;5140261;27;20476;-60
2023/04/11 03:50:10;;;;;;;29.25;16.33;;;;;;;6.05;100.00;99823.59;5139914;28;20051;-62
2023/04/11 03:52:36;;;;;;;27.55;16.40;;;;;;;6.13;100.00;99844.59;5140237;28;20134;-59
2023/04/11 03:55:02;;;;;;;29.92;16.25;;;;;;;6.19;100.00;99849.84;5139654;28;20047;-57
2023/04/11 03:57:28;;;;;;;39.15;16.17;;;;;;;6.21;100.00;99842.97;5140202;27;20051;-60
2023/04/11 03:59:55;;;;;;;27.58;16.45;;;;;;;6.28;100.00;99850.69;5139938;28;20043;-61
2023/04/11 04:02:21;;;;;;;30.55;16.65;;;;;;;6.29;100.00;99844.09;5139822;28;20062;-59
2023/04/11 04:04:53;;;;;;;35.97;16.80;;;;;;;6.39;100.00;99832.88;5139866;28;20150;-61
2023/04/11 04:07:21;;;;;;;36.00;16.88;;;;;;;6.81;100.00;99816.84;5139557;27;20440;-61
2023/04/11 04:09:47;;;;;;;31.95;16.13;;;;;;;7.29;100.00;99755.72;5138878;27;20043;-60
2023/04/11 04:12:13;;;;;;;34.10;16.20;;;;;;;7.70;100.00;99615.84;5139630;28;20134;-63
2023/04/11 04:14:39;;;;;;;29.85;14.35;;;;;;;8.27;100.00;99466.03;5139393;28;20473;-59
2023/04/11 04:17:05;;;;;;;28.98;15.38;;;;;;;8.51;100.00;99241.97;5139469;28;20327;-63
2023/04/11 04:19:31;;;;;;;25.65;15.48;;;;;;;8.82;100.00;99021.75;5139729;27;20138;-58
2023/04/11 04:21:57;;;;;;;29.38;14.52;;;;;;;9.15;100.00;98844.31;5139353;28;20094;-59
2023/04/11 04:24:25;;;;;;;37.25;14.52;;;;;;;9.55;100.00;98702.72;5139762;27;20058;-60
2023/04/11 04:26:51;;;;;;;32.35;13.52;;;;;;;9.94;100.00;98592.94;5139572;28;20381;-61
2023/04/11 04:29:17;;;;;;;32.13;14.57;;;;;;;10.18;100.00;98554.06;5139441;28;20051;-62
2023/04/11 04:31:43;;;;;;;27.23;12.95;;;;;;;10.46;100.00;98525.38;5139269;28;20380;-63
2023/04/11 04:34:09;;;;;;;31.38;13.15;;;;;;;10.93;100.00;98530.03;5139096;28;20051;-63
2023/04/11 04:36:45;;;;;;;23.95;13.88;;;;;;;11.27;100.00;98546.28;5139273;28;20089;-61
2023/04/11 04:39:16;;;;;;;22.60;14.32;;;;;;;11.44;100.00;98588.69;5139058;28;20061;-63
2023/04/11 04:41:42;;;;;;;26.23;14.50;;;;;;;11.94;100.00;98619.16;5139394;27;20061;-59
2023/04/11 04:44:10;;;;;;;21.92;13.52;;;;;;;12.51;100.00;98681.75;5139010;28;20138;-60
2023/04/11 04:46:36;;;;;;;31.60;14.00;;;;;;;12.54;100.00;98701.00;5139411;28;20043;-62
2023/04/11 04:49:03;;;;;;;33.10;15.43;;;;;;;12.91;100.00;98730.13;5138913;28;20055;-61
2023/04/11 04:51:29;;;;;;;29.73;16.58;;;;;;;13.04;100.00;98744.31;5140281;27;20071;-60
2023/04/11 04:53:56;;;;;;;32.42;14.63;;;;;;;13.27;100.00;98771.50;5142002;28;20138;-61
2023/04/11 04:56:22;;;;;;;32.58;16.38;;;;;;;13.47;100.00;98794.69;5139298;28;20333;-66
2023/04/11 04:58:48;;;;;;;36.40;17.38;;;;;;;13.67;100.00;98806.13;5138875;28;20458;-64
2023/04/11 05:01:15;;;;;;;40.17;19.92;;;;;;;13.89;100.00;98846.25;5138098;28;20059;-56
2023/04/11 05:03:43;;;;;;;42.25;19.48;;;;;;;14.15;100.00;98848.97;5138400;28;20328;-60
2023/04/11 05:06:09;;;;;;;45.10;20.83;;;;;;;14.49;100.00;98896.16;5138367;28;20043;-58
2023/04/11 05:08:35;;;;;;;41.72;21.10;;;;;;;14.65;100.00;98917.84;5138686;27;20075;-61
2023/04/11 05:11:01;;;;;;;49.92;24.20;;;;;;;15.00;100.00;98937.06;5138294;28;20333;-59
2023/04/11 05:13:27;;;;;;;38.22;19.02;;;;;;;15.48;100.00;98968.78;5138578;28;20047;-57
2023/04/11 05:15:53;;;;;;;39.58;19.80;;;;;;;15.53;100.00;98994.03;5138131;28;20062;-61
2023/04/11 05:18:19;;;;;;;48.33;20.98;;;;;;;15.71;100.00;98985.66;5138647;28;20054;-62
2023/04/11 05:20:45;;;;;;;36.95;19.23;;;;;;;16.08;100.00;99002.81;5137793;27;20441;-62
2023/04/11 05:23:11;;;;;;;37.58;19.30;;;;;;;16.82;100.00;99067.84;5138398;28;20132;-67
2023/04/11 05:25:37;;;;;;;30.35;17.13;;;;;;;17.18;100.00;99090.47;5138083;28;20558;-67
2023/04/11 05:28:03;;;;;;;37.03;25.35;;;;;;;17.36;100.00;99093.06;5137818;28;20059;-66
2023/04/11 05:30:30;;;;;;;38.88;24.60;;;;;;;17.47;100.00;99090.19;5138340;28;20047;-62
2023/04/11 05:32:56;;;;;;;29.30;16.38;;;;;;;17.70;100.00;99100.59;5137799;27;20101;-61
2023/04/11 05:35:22;;;;;;;32.65;17.95;;;;;;;17.57;100.00;99103.13;5138072;28;20137;-62
2023/04/11 05:37:48;;;;;;;35.38;16.25;;;;;;;17.98;100.00;99099.47;5137756;28;20055;-55
2023/04/11 05:40:15;;;;;;;31.80;17.67;;;;;;;17.98;100.00;99132.75;5138091;28;20051;-53
2023/04/11 05:42:41;;;;;;;22.40;15.93;;;;;;;18.48;100.00;99145.97;5137658;28;20055;-58
2023/04/11 05:45:08;;;;;;;26.98;15.65;;;;;;;18.37;100.00;99141.78;5138156;28;20141;-54
2023/04/11 05:47:34;;;;;;;23.08;13.70;;;;;;;18.37;100.00;99158.44;5137492;28;20055;-61
2023/04/11 05:50:00;;;;;;;30.55;22.08;;;;;;;19.49;99.33;99170.13;5138003;28;20138;-63
2023/04/11 05:52:26;;;;;;;26.52;13.95;;;;;;;19.78;95.32;99167.63;5137549;28;20491;-61
2023/04/11 05:54:51;;;;;;;30.58;15.50;;;;;;;20.03;94.01;99171.94;5137709;28;20138;-59
2023/04/11 05:57:18;;;;;;;27.05;15.30;;;;;;;19.77;92.37;99170.88;5137830;28;20043;-59
2023/04/11 05:59:48;;;;;;;30.23;16.33;;;;;;;20.24;92.18;99165.13;5137619;28;20088;-63
2023/04/11 06:02:14;;;;;;;38.25;17.58;;;;;;;19.74;93.89;99172.50;5137683;28;20401;-58
2023/04/11 06:04:40;;;;;;;32.00;15.77;;;;;;;20.57;95.52;99164.03;5137177;27;20051;-60
2023/04/11 06:07:07;;;;;;;32.88;17.20;;;;;;;20.30;90.92;99171.78;5137557;28;20431;-60
2023/04/11 06:09:33;;;;;;;37.58;16.20;;;;;;;20.32;92.82;99166.53;5137127;28;20074;-61
2023/04/11 06:12:00;;;;;;;32.35;15.30;;;;;;;20.54;88.70;99170.47;5137612;28;20047;-61
2023/04/11 06:14:26;;;;;;;26.50;14.63;;;;;;;20.79;87.36;99169.91;5137017;28;20046;-60
2023/04/11 06:16:53;;;;;;;23.92;13.93;;;;;;;20.83;87.81;99167.03;5137666;27;20319;-55
2023/04/11 06:19:19;;;;;;;25.75;14.98;;;;;;;21.35;84.36;99171.72;5137596;28;20146;-57
2023/04/11 06:21:45;;;;;;;27.20;12.02;;;;;;;21.35;83.19;99178.06;5137099;28;20051;-58
2023/04/11 06:24:11;;;;;;;29.70;12.32;;;;;;;21.29;83.06;99181.81;5137031;27;20053;-59
2023/04/11 06:26:37;;;;;;;17.45;10.57;;;;;;;21.32;83.90;99169.78;5137184;28;20147;-58
2023/04/11 06:29:04;;;;;;;13.18;7.03;;;;;;;21.78;77.67;99181.75;5137247;28;20137;-58
2023/04/11 06:31:31;;;;;;;34.72;7.30;;;;;;;21.57;78.43;99177.53;5136279;27;20055;-58
2023/04/11 06:33:57;;;;;;;13.45;7.55;;;;;;;22.10;76.35;99183.66;5137261;28;20075;-55
2023/04/11 06:36:23;;;;;;;16.15;10.80;;;;;;;22.09;76.06;99177.28;5136846;28;20169;-58
2023/04/11 06:38:49;;;;;;;22.15;9.50;;;;;;;22.15;75.90;99183.13;5137219;27;20080;-57
2023/04/11 06:41:15;;;;;;;14.30;9.20;;;;;;;22.47;74.99;99176.59;5136742;27;20326;-56
2023/04/11 06:43:41;;;;;;;20.77;11.57;;;;;;;22.42;73.79;99185.50;5137217;28;20460;-56
2023/04/11 06:46:07;;;;;;;24.95;10.77;;;;;;;22.68;73.98;99183.50;5137418;28;20139;-58
2023/04/11 06:48:33;;;;;;;29.33;11.95;;;;;;;22.81;72.66;99186.31;5137086;27;20293;-58
2023/04/11 06:50:59;;;;;;;27.00;12.05;;;;;;;22.80;73.24;99179.16;5136894;28;20051;-59
2023/04/11 06:53:25;;;;;;;36.95;12.60;;;;;;;23.23;73.00;99181.38;5136483;28;20058;-60
2023/04/11 06:55:51;;;;;;;33.08;14.07;;;;;;;23.33;70.69;99178.69;5137016;27;20047;-60
2023/04/11 06:58:17;;;;;;;41.00;20.60;;;;;;;23.33;70.16;99173.88;5136532;28;20404;-62
2023/04/11 07:00:43;;;;;;;33.13;17.30;;;;;;;22.54;69.28;99183.97;5136682;28;20059;-62
2023/04/11 07:03:09;;;;;;;34.38;18.20;;;;;;;22.99;71.20;99178.19;5136454;27;20051;-61
2023/04/11 07:05:36;;;;;;;35.35;19.42;;;;;;;22.55;69.93;99182.72;5136924;28;20086;-59
2023/04/11 07:08:02;;;;;;;38.33;20.17;;;;;;;23.70;66.80;99182.63;5136566;28;20051;-62
2023/04/11 07:10:28;;;;;;;36.10;16.23;;;;;;;23.38;66.01;99181.66;5136978;28;20104;-61
2023/04/11 07:12:54;;;;;;;35.38;20.02;;;;;;;23.34;67.09;99185.84;5136463;28;20079;-59
2023/04/11 07:15:22;;;;;;;17.58;10.32;;;;;;;22.85;67.05;99177.81;5136187;28;20050;-59
2023/04/11 07:17:48;;;;;;;14.88;9.18;;;;;;;23.89;64.62;99184.31;5136206;28;20126;-60
2023/04/11 07:20:15;;;;;;;19.13;8.80;;;;;;;23.42;66.02;99173.16;5136476;28;20381;-55
2023/04/11 07:22:42;;;;;;;9.20;6.00;;;;;;;23.18;67.45;99167.97;5136340;28;20424;-59
2023/04/11 07:25:09;;;;;;;17.27;6.82;;;;;;;23.59;64.54;99180.16;5136410;28;20055;-59
2023/04/11 07:27:35;;;;;;;9.65;5.93;;;;;;;23.67;63.02;99183.50;5136468;27;20327;-59
2023/04/11 07:30:01;;;;;;;8.98;5.13;;;;;;;23.87;61.62;99172.00;5136207;28;20266;-59
2023/04/11 07:32:27;;;;;;;7.25;4.93;;;;;;;21.68;64.63;99169.66;5135915;28;20054;-58
2023/04/11 07:34:53;;;;;;;11.60;5.95;;;;;;;22.52;63.73;99172.44;5135975;28;20063;-60
2023/04/11 07:37:19;;;;;;;11.00;7.75;;;;;;;22.82;62.01;99170.31;5136414;28;20469;-59
2023/04/11 07:39:46;;;;;;;13.43;6.55;;;;;;;21.95;63.70;99166.50;5136032;28;20427;-59
2023/04/11 07:42:12;;;;;;;9.18;6.30;;;;;;;21.85;66.11;99165.56;5136485;28;20047;-57
2023/04/11 07:44:38;;;;;;;6.00;4.75;;;;;;;21.71;63.92;99162.41;5138936;27;20055;-58
2023/04/11 07:47:04;;;;;;;12.48;5.25;;;;;;;21.59;65.18;99156.34;5140047;28;20412;-61
2023/04/11 07:49:30;;;;;;;12.90;7.05;;;;;;;21.72;65.54;99161.97;5139537;27;20435;-59
2023/04/11 07:51:56;;;;;;;11.35;5.85;;;;;;;22.86;62.04;99169.00;5139602;27;20051;-60
2023/04/11 07:54:23;;;;;;;10.07;5.47;;;;;;;23.25;62.45;99161.34;5139673;27;20047;-61
2023/04/11 07:56:50;;;;;;;14.57;5.32;;;;;;;23.53;61.93;99156.78;5139422;27;20047;-59
2023/04/11 07:59:16;;;;;;;16.65;7.00;;;;;;;23.37;59.71;99157.75;5139685;27;20127;-62
2023/04/11 08:01:42;;;;;;;11.93;6.63;;;;;;;23.45;60.99;99147.84;5139427;28;20412;-60
2023/04/11 08:04:08;;;;;;;12.25;5.63;;;;;;;23.39;60.04;99149.69;5139395;28;20133;-59
2023/04/11 08:06:35;;;;;;;10.48;5.35;;;;;;;24.29;57.77;99147.25;5138987;27;20062;-59
2023/04/11 08:09:01;;;;;;;10.93;6.05;;;;;;;23.10;60.12;99143.50;5139642;28;20123;-59
2023/04/11 08:11:27;;;;;;;14.93;6.63;;;;;;;22.49;60.13;99140.63;5139194;28;20420;-59
2023/04/11 08:13:54;;;;;;;9.23;4.47;;;;;;;22.89;64.00;99128.97;5139444;28;20054;-61
2023/04/11 08:16:20;;;;;;;8.00;5.43;;;;;;;23.81;61.21;99138.22;5139103;27;20305;-61
2023/04/11 08:18:46;;;;;;;9.27;4.95;;;;;;;23.39;62.01;99132.91;5139218;28;20073;-62
2023/04/11 08:21:13;;;;;;;8.30;4.53;;;;;;;24.55;59.20;99133.06;5139350;28;20124;-60
2023/04/11 08:23:40;;;;;;;12.48;6.10;;;;;;;22.68;62.83;99127.63;5138983;28;20428;-59
2023/04/11 08:26:07;;;;;;;13.50;6.30;;;;;;;23.44;62.78;99123.91;5139171;28;20047;-57
2023/04/11 08:28:33;;;;;;;12.38;6.15;;;;;;;23.65;60.93;99133.56;5139088;28;20047;-59
2023/04/11 08:31:01;;;;;;;8.43;6.00;;;;;;;23.02;60.79;99126.97;5139145;28;20120;-60
2023/04/11 08:33:27;;;;;;;9.00;6.30;;;;;;;22.65;62.40;99122.16;5138887;28;20047;-61
2023/04/11 08:35:53;;;;;;;11.57;6.25;;;;;;;23.33;59.65;99120.72;5139195;28;20159;-58
2023/04/11 08:38:19;;;;;;;9.15;4.50;;;;;;;22.99;59.83;99118.66;5138818;28;20193;-58
2023/04/11 08:40:45;;;;;;;13.63;6.68;;;;;;;21.70;61.82;99117.00;5139167;28;20222;-58
2023/04/11 08:43:12;;;;;;;11.07;6.25;;;;;;;22.78;60.21;99114.53;5138493;28;20134;-59
2023/04/11 08:45:38;;;;;;;9.05;5.90;;;;;;;22.20;60.38;99115.56;5138824;28;20059;-57
2023/04/11 08:48:05;;;;;;;12.30;4.60;;;;;;;22.53;61.66;99113.34;5138878;28;20129;-59
2023/04/11 08:50:31;;;;;;;11.55;5.13;;;;;;;22.26;61.90;99110.22;5138836;28;20055;-60
2023/04/11 08:53:01;;;;;;;5.93;5.05;;;;;;;23.99;57.33;99108.78;5138592;28;20043;-58
2023/04/11 08:55:27;;;;;;;11.30;5.80;;;;;;;24.17;57.09;99109.66;5138114;27;20138;-59
2023/04/11 08:57:55;;;;;;;8.57;5.90;;;;;;;22.00;59.42;99101.78;5138835;28;20298;-57
2023/04/11 09:00:23;;;;;;;11.32;6.45;;;;;;;21.50;62.61;99106.00;5138517;28;20118;-57
2023/04/11 09:02:57;;;;;;;15.18;4.60;;;;;;;23.12;59.83;99099.06;5138855;27;20079;-57
2023/04/11 09:05:32;;;;;;;8.38;4.25;;;;;;;22.94;58.91;99094.88;5138478;28;20047;-60
2023/04/11 09:07:59;;;;;;;9.98;5.45;;;;;;;23.80;58.50;99097.47;5138721;27;20062;-62
2023/04/11 09:10:26;;;;;;;13.02;5.10;;;;;;;22.16;60.42;99091.75;5138601;28;20055;-61
2023/04/11 09:12:52;;;;;;;9.57;5.93;;;;;;;21.87;61.19;99095.38;5138333;28;20058;-58
2023/04/11 09:15:20;;;;;;;9.70;5.97;;;;;;;23.66;58.34;99084.00;5138289;28;20051;-60
2023/04/11 09:17:46;;;;;;;9.82;5.00;;;;;;;22.42;59.02;99089.75;5138341;28;20130;-60
2023/04/11 09:20:16;;;;;;;7.35;4.55;;;;;;;22.90;59.27;99085.03;5138550;28;20142;-59
2023/04/11 09:22:43;;;;;;;9.10;4.22;;;;;;;22.20;59.68;99079.25;5138270;28;20054;-62
2023/04/11 09:25:09;;;;;;;19.80;5.55;;;;;;;23.38;58.32;99071.78;5138443;28;20078;-62
2023/04/11 09:27:35;;;;;;;8.68;5.95;;;;;;;22.29;59.77;99067.41;5138141;28;20141;-58
2023/04/11 09:30:02;;;;;;;6.43;4.82;;;;;;;21.69;59.93;99076.34;5138448;27;20051;-60
2023/04/11 09:32:32;;;;;;;14.00;5.78;;;;;;;22.27;60.53;99064.31;5137912;28;20122;-61
2023/04/11 09:35:09;;;;;;;22.42;5.65;;;;;;;21.41;62.42;99052.06;5138151;27;20051;-60
2023/04/11 09:37:43;;;;;;;10.52;4.72;;;;;;;21.95;61.24;99052.06;5137924;27;20441;-56
2023/04/11 09:40:10;;;;;;;9.38;4.82;;;;;;;23.08;60.67;99050.88;5137772;27;20043;-57
2023/04/11 09:42:37;;;;;;;13.93;5.10;;;;;;;23.42;60.40;99047.25;5137821;28;20047;-58
2023/04/11 09:45:03;;;;;;;6.88;4.60;;;;;;;24.01;55.64;99047.50;5137808;27;20059;-60
2023/04/11 09:47:31;;;;;;;7.97;5.30;;;;;;;24.03;55.42;99040.22;5138046;28;20047;-60
2023/04/11 09:49:58;;;;;;;7.97;4.32;;;;;;;22.16;55.59;99030.34;5137775;28;20051;-58
2023/04/11 09:52:25;;;;;;;11.13;5.22;;;;;;;23.36;56.07;99033.09;5137642;28;20066;-60
2023/04/11 09:54:53;;;;;;;9.18;6.35;;;;;;;21.64;56.24;99037.06;5137645;28;20058;-58
2023/04/11 09:57:21;;;;;;;10.15;5.95;;;;;;;22.63;57.48;99018.47;5138035;28;20058;-60
2023/04/11 09:59:49;;;;;;;7.25;4.43;;;;;;;20.27;61.20;99023.09;5137558;28;20051;-61
2023/04/11 10:02:15;;;;;;;13.55;4.28;;;;;;;21.43;58.97;99024.53;5137724;28;20309;-60
2023/04/11 10:04:42;;;;;;;9.07;6.05;;;;;;;21.59;61.48;99011.28;5137456;28;20051;-61
2023/04/11 10:07:12;;;;;;;8.68;5.65;;;;;;;22.05;59.21;99006.28;5136394;27;20328;-56
2023/04/11 10:09:41;;;;;;;9.57;4.35;;;;;;;22.29;58.43;99008.78;5137480;28;20114;-58
2023/04/11 10:12:08;;;;;;;15.07;5.40;;;;;;;22.03;60.03;98997.59;5137265;28;20047;-58
2023/04/11 10:14:47;;;;;;;7.55;4.78;;;;;;;22.04;58.28;98998.38;5137486;28;20077;-58
2023/04/11 10:17:15;;;;;;;8.80;5.70;;;;;;;20.65;61.43;98997.53;5137390;27;20047;-60
2023/04/11 10:19:42;;;;;;;7.53;5.20;;;;;;;19.44;64.06;98992.72;5137758;27;20107;-59
2023/04/11 10:22:08;;;;;;;8.35;4.93;;;;;;;20.88;61.54;98993.72;5137213;28;20379;-59
2023/04/11 10:24:34;;;;;;;11.50;5.35;;;;;;;20.38;61.35;98983.84;5137650;28;20390;-57
2023/04/11 10:27:02;;;;;;;9.55;5.13;;;;;;;21.07;58.59;98973.31;5137232;27;20073;-57
2023/04/11 10:29:51;;;;;;;12.68;4.55;;;;;;;21.04;58.76;98987.34;5137106;28;20051;-59
2023/04/11 10:32:20;;;;;;;8.48;5.28;;;;;;;19.80;63.59;98970.53;5137169;28;20101;-58
2023/04/11 10:35:32;;;;;;;9.88;6.53;;;;;;;20.98;62.44;98975.94;5137086;28;20111;-61
2023/04/11 10:37:58;;;;;;;8.05;4.80;;;;;;;20.58;63.54;98973.41;5137602;28;20047;-60
2023/04/11 10:40:25;;;;;;;6.68;5.03;;;;;;;20.95;63.23;98957.31;5137271;27;20054;-57
2023/04/11 10:42:51;;;;;;;5.45;4.53;;;;;;;19.45;64.32;98953.34;5137315;28;20051;-57
2023/04/11 10:45:20;;;;;;;9.43;5.47;;;;;;;20.41;65.03;98944.00;5137125;27;20086;-58
2023/04/11 10:48:10;;;;;;;8.30;4.88;;;;;;;20.24;64.12;98937.66;5136509;28;20076;-57
2023/04/11 10:50:40;;;;;;;13.65;5.38;;;;;;;19.93;63.67;98935.25;5137283;27;20054;-58
2023/04/11 10:53:08;;;;;;;7.78;5.53;;;;;;;20.26;65.08;98938.03;5136875;28;20051;-61
2023/04/11 10:55:46;;;;;;;7.38;4.82;;;;;;;19.56;65.90;98925.34;5137025;27;20058;-57
2023/04/11 10:58:15;;;;;;;13.77;5.28;;;;;;;19.42;66.48;98920.06;5136707;28;20047;-57
2023/04/11 11:01:18;;;;;;;9.38;4.88;;;;;;;19.59;67.87;98930.00;5136867;28;20051;-53
2023/04/11 11:03:57;;;;;;;6.68;4.57;;;;;;;19.68;68.00;98916.34;5137037;28;20051;-57
2023/04/11 11:06:25;;;;;;;8.50;4.68;;;;;;;19.49;67.75;98914.34;5136664;27;20055;-60
2023/04/11 11:08:51;;;;;;;6.72;4.20;;;;;;;18.09;69.56;98916.25;5137068;28;20046;-59
2023/04/11 11:11:18;;;;;;;6.28;4.25;;;;;;;17.83;70.15;98920.63;5136612;28;20135;-57
2023/04/11 11:13:46;;;;;;;6.63;3.85;;;;;;;18.05;70.79;98909.97;5136693;28;20104;-57
2023/04/11 11:16:14;;;;;;;9.27;5.32;;;;;;;17.66;71.50;98908.59;5136499;28;20051;-60
2023/04/11 11:18:44;;;;;;;10.18;4.90;;;;;;;17.06;73.36;98904.63;5138395;27;20051;-56
2023/04/11 11:21:12;;;;;;;12.48;6.07;;;;;;;17.15;75.39;98899.38;5140122;27;20050;-59